createdAt,value
2019-02-14T00:00:43.517Z,3.80
2019-02-14T00:03:11.621Z,3.80
2019-02-14T00:05:39.110Z,3.90
2019-02-14T00:08:06.571Z,3.63
2019-02-14T00:10:34.036Z,3.22
2019-02-14T00:13:01.513Z,3.58
2019-02-14T00:15:28.948Z,3.70
2019-02-14T00:17:56.421Z,3.70
2019-02-14T00:20:23.879Z,3.60
2019-02-14T00:22:51.354Z,3.57
2019-02-14T00:25:18.803Z,3.12
2019-02-14T00:27:46.262Z,3.43
2019-02-14T00:30:13.716Z,3.40
2019-02-14T00:32:41.150Z,3.28
2019-02-14T00:35:08.623Z,3.40
2019-02-14T00:37:36.108Z,3.08
2019-02-14T00:40:03.580Z,3.27
2019-02-14T00:42:31.032Z,3.43
2019-02-14T00:44:58.497Z,3.55
2019-02-14T00:47:25.971Z,3.47
2019-02-14T00:49:54.424Z,3.35
2019-02-14T00:52:21.888Z,3.43
2019-02-14T00:54:49.329Z,3.85
2019-02-14T00:57:16.826Z,3.67
2019-02-14T00:59:44.287Z,3.27
2019-02-14T01:02:11.742Z,3.10
2019-02-14T01:04:39.181Z,3.50
2019-02-14T01:07:06.641Z,3.17
2019-02-14T01:09:34.075Z,3.17
2019-02-14T01:12:01.579Z,3.60
2019-02-14T01:14:29.049Z,3.23
2019-02-14T01:16:56.633Z,3.23
2019-02-14T01:19:24.883Z,3.50
2019-02-14T01:21:52.311Z,3.37
2019-02-14T01:24:19.744Z,3.43
2019-02-14T01:26:47.188Z,3.33
2019-02-14T01:29:14.643Z,3.40
2019-02-14T01:31:42.082Z,3.77
2019-02-14T01:34:09.545Z,3.03
2019-02-14T01:36:36.983Z,3.30
2019-02-14T01:39:04.455Z,3.47
2019-02-14T01:41:31.903Z,2.80
2019-02-14T01:44:00.351Z,3.37
2019-02-14T01:46:27.888Z,3.17
2019-02-14T01:48:55.666Z,2.80
2019-02-14T01:51:23.163Z,3.10
2019-02-14T01:53:50.623Z,2.63
2019-02-14T01:56:18.105Z,2.73
2019-02-14T01:58:45.632Z,3.00
2019-02-14T02:01:13.100Z,3.07
2019-02-14T02:03:40.580Z,3.23
2019-02-14T02:06:08.016Z,3.30
2019-02-14T02:08:35.526Z,2.70
2019-02-14T02:11:02.999Z,3.17
2019-02-14T02:13:30.424Z,2.80
2019-02-14T02:15:57.866Z,3.00
2019-02-14T02:18:26.337Z,2.90
2019-02-14T02:20:53.799Z,3.47
2019-02-14T02:23:21.286Z,2.72
2019-02-14T02:25:48.758Z,2.97
2019-02-14T02:28:17.090Z,3.00
2019-02-14T02:30:44.672Z,2.77
2019-02-14T02:33:12.153Z,3.00
2019-02-14T02:35:39.609Z,3.10
2019-02-14T02:38:07.090Z,3.03
2019-02-14T02:40:34.535Z,3.15
2019-02-14T02:43:02.035Z,2.85
2019-02-14T02:45:29.494Z,2.80
2019-02-14T02:47:56.962Z,2.83
2019-02-14T02:50:24.474Z,3.10
2019-02-14T02:52:51.976Z,2.70
2019-02-14T02:55:19.411Z,2.80
2019-02-14T02:57:46.889Z,3.47
2019-02-14T03:00:15.342Z,3.20
2019-02-14T03:02:42.803Z,3.50
2019-02-14T03:05:10.269Z,3.13
2019-02-14T03:07:37.735Z,3.10
2019-02-14T03:10:05.204Z,3.13
2019-02-14T03:12:33.822Z,3.35
2019-02-14T03:15:01.301Z,3.20
2019-02-14T03:17:28.735Z,3.40
2019-02-14T03:19:56.167Z,3.27
2019-02-14T03:22:23.626Z,3.00
2019-02-14T03:24:51.070Z,3.03
2019-02-14T03:27:18.585Z,3.13
2019-02-14T03:29:46.049Z,3.70
2019-02-14T03:32:13.521Z,2.90
2019-02-14T03:34:41.904Z,2.93
2019-02-14T03:37:09.666Z,3.00
2019-02-14T03:39:37.157Z,3.15
2019-02-14T03:42:04.613Z,3.04
2019-02-14T03:44:32.107Z,3.10
2019-02-14T03:46:59.528Z,3.13
2019-02-14T03:49:27.829Z,3.23
2019-02-14T03:51:55.290Z,3.40
2019-02-14T03:54:22.758Z,3.13
2019-02-14T03:56:50.245Z,3.23
2019-02-14T03:59:17.754Z,3.20
2019-02-14T04:01:45.213Z,3.07
2019-02-14T04:04:12.655Z,3.37
2019-02-14T04:06:40.123Z,3.60
2019-02-14T04:09:08.378Z,3.22
2019-02-14T04:11:35.799Z,3.57
2019-02-14T04:14:03.245Z,3.40
2019-02-14T04:16:30.693Z,3.20
2019-02-14T04:18:58.425Z,3.60
2019-02-14T04:21:25.897Z,3.00
2019-02-14T04:23:54.408Z,3.17
2019-02-14T04:26:21.950Z,3.50
2019-02-14T04:28:49.401Z,3.00
2019-02-14T04:31:16.849Z,3.47
2019-02-14T04:33:44.339Z,3.40
2019-02-14T04:36:11.818Z,2.80
2019-02-14T04:38:39.335Z,3.27
2019-02-14T04:41:06.800Z,2.92
2019-02-14T04:43:34.256Z,3.67
2019-02-14T04:46:02.461Z,3.70
2019-02-14T04:48:29.914Z,3.67
2019-02-14T04:50:57.378Z,3.40
2019-02-14T04:53:24.789Z,3.30
2019-02-14T04:55:52.240Z,3.17
2019-02-14T04:58:19.696Z,3.47
2019-02-14T05:00:47.118Z,3.30
2019-02-14T05:03:14.616Z,3.17
2019-02-14T05:05:42.076Z,3.00
2019-02-14T05:08:09.602Z,3.30
2019-02-14T05:10:37.059Z,2.83
2019-02-14T05:13:04.494Z,3.00
2019-02-14T05:15:31.955Z,2.90
2019-02-14T05:17:59.511Z,3.33
2019-02-14T05:20:26.949Z,3.23
2019-02-14T05:22:54.978Z,3.07
2019-02-14T05:25:22.453Z,2.70
2019-02-14T05:27:49.910Z,3.30
2019-02-14T05:30:18.111Z,3.40
2019-02-14T05:32:45.577Z,3.58
2019-02-14T05:35:13.075Z,4.47
2019-02-14T05:37:40.551Z,4.50
2019-02-14T05:40:08.685Z,4.70
2019-02-14T05:42:36.152Z,5.50
2019-02-14T05:45:03.655Z,5.20
2019-02-14T05:47:31.075Z,4.73
2019-02-14T05:49:58.539Z,3.73
2019-02-14T05:52:25.988Z,3.70
2019-02-14T05:54:53.447Z,3.57
2019-02-14T05:57:20.888Z,3.80
2019-02-14T05:59:48.452Z,3.30
2019-02-14T06:02:15.896Z,3.50
2019-02-14T06:04:43.384Z,3.60
2019-02-14T06:07:10.898Z,3.20
2019-02-14T06:09:38.400Z,3.30
2019-02-14T06:12:05.884Z,3.62
2019-02-14T06:14:33.304Z,3.57
2019-02-14T06:17:00.742Z,3.27
2019-02-14T06:19:29.264Z,3.00
2019-02-14T06:21:56.748Z,3.28
2019-02-14T06:24:24.207Z,2.90
2019-02-14T06:26:51.666Z,2.80
2019-02-14T06:29:19.125Z,3.47
2019-02-14T06:31:46.606Z,3.20
2019-02-14T06:34:14.083Z,3.23
2019-02-14T06:36:41.562Z,3.10
2019-02-14T06:39:09.023Z,2.97
2019-02-14T06:41:36.508Z,3.33
2019-02-14T06:44:03.973Z,2.70
2019-02-14T06:46:31.415Z,3.33
2019-02-14T06:48:58.895Z,2.70
2019-02-14T06:51:26.353Z,2.75
2019-02-14T06:53:55.474Z,3.00
2019-02-14T06:56:23.037Z,2.60
2019-02-14T06:58:50.509Z,2.57
2019-02-14T07:01:17.995Z,2.60
2019-02-14T07:03:45.476Z,2.75
2019-02-14T07:06:12.947Z,2.73
2019-02-14T07:08:40.378Z,2.63
2019-02-14T07:11:07.844Z,2.57
2019-02-14T07:13:35.324Z,3.00
2019-02-14T07:16:02.885Z,2.90
2019-02-14T07:18:30.319Z,2.67
2019-02-14T07:20:57.770Z,2.77
2019-02-14T07:23:25.276Z,2.80
2019-02-14T07:25:52.782Z,2.97
2019-02-14T07:28:20.245Z,2.93
2019-02-14T07:30:47.745Z,3.10
2019-02-14T07:33:15.187Z,3.10
2019-02-14T07:35:42.637Z,3.07
2019-02-14T07:38:11.008Z,2.47
2019-02-14T07:40:38.582Z,2.90
2019-02-14T07:43:06.084Z,2.87
2019-02-14T07:45:33.930Z,2.60
2019-02-14T07:48:02.313Z,3.10
2019-02-14T07:50:29.761Z,2.67
2019-02-14T07:52:57.622Z,2.80
2019-02-14T07:55:25.130Z,2.43
2019-02-14T07:57:52.623Z,2.60
2019-02-14T08:00:20.061Z,2.37
2019-02-14T08:02:47.558Z,2.83
2019-02-14T08:05:15.059Z,2.50
2019-02-14T08:07:42.527Z,2.70
2019-02-14T08:10:10.908Z,2.50
2019-02-14T08:12:38.421Z,2.67
2019-02-14T08:15:13.816Z,2.70
2019-02-14T08:17:41.295Z,2.40
2019-02-14T08:20:17.303Z,2.30
2019-02-14T08:22:44.759Z,2.50
2019-02-14T08:25:12.223Z,2.50
2019-02-14T08:27:39.696Z,2.62
2019-02-14T08:30:07.921Z,2.40
2019-02-14T08:32:35.394Z,2.40
2019-02-14T08:35:03.329Z,2.10
2019-02-14T08:37:30.843Z,2.20
2019-02-14T08:39:58.360Z,2.20
2019-02-14T08:42:25.819Z,2.40
2019-02-14T08:44:53.306Z,2.40
2019-02-14T08:47:20.775Z,2.60
2019-02-14T08:49:48.270Z,2.27
2019-02-14T08:52:15.777Z,2.70
2019-02-14T08:54:43.233Z,2.50
2019-02-14T08:57:10.724Z,2.35
2019-02-14T08:59:38.231Z,2.08
2019-02-14T09:02:05.730Z,2.10
2019-02-14T09:04:33.879Z,2.20
2019-02-14T09:07:01.373Z,2.30
2019-02-14T09:09:28.931Z,2.17
2019-02-14T09:11:56.466Z,2.47
2019-02-14T09:14:23.911Z,2.07
2019-02-14T09:16:51.417Z,2.37
2019-02-14T09:19:18.910Z,2.00
2019-02-14T09:21:46.394Z,1.70
2019-02-14T09:24:14.456Z,2.00
2019-02-14T09:26:41.969Z,1.90
2019-02-14T09:29:09.409Z,1.90
2019-02-14T09:31:36.912Z,1.90
2019-02-14T09:34:04.696Z,1.80
2019-02-14T09:36:32.146Z,1.80
2019-02-14T09:38:59.625Z,1.87
2019-02-14T09:41:27.060Z,1.37
2019-02-14T09:43:54.606Z,1.73
2019-02-14T09:46:22.080Z,1.67
2019-02-14T09:48:49.595Z,2.00
2019-02-14T09:51:17.079Z,1.62
2019-02-14T09:53:44.625Z,1.70
2019-02-14T09:56:12.074Z,1.80
2019-02-14T09:58:39.530Z,1.70
2019-02-14T10:01:07.036Z,1.80
2019-02-14T10:03:35.326Z,1.90
2019-02-14T10:06:02.942Z,1.93
2019-02-14T10:08:30.421Z,1.73
2019-02-14T10:10:57.960Z,1.97
2019-02-14T10:13:25.543Z,1.60
2019-02-14T10:15:53.041Z,1.70
2019-02-14T10:18:20.546Z,1.70
2019-02-14T10:20:48.038Z,1.60
2019-02-14T10:23:15.521Z,1.58
2019-02-14T10:25:43.010Z,1.70
2019-02-14T10:28:10.488Z,1.80
2019-02-14T10:30:40.102Z,1.50
2019-02-14T10:33:05.919Z,1.43
2019-02-14T10:35:33.470Z,1.57
2019-02-14T10:38:00.955Z,1.90
2019-02-14T10:40:28.456Z,1.70
2019-02-14T10:42:55.920Z,1.80
2019-02-14T10:45:23.420Z,1.77
2019-02-14T10:47:50.921Z,1.83
2019-02-14T10:50:18.942Z,1.67
2019-02-14T10:52:46.473Z,1.77
2019-02-14T10:55:14.757Z,1.92
2019-02-14T10:57:42.230Z,1.90
2019-02-14T11:00:29.352Z,1.73
2019-02-14T11:02:56.818Z,1.80
2019-02-14T11:05:24.282Z,1.70
2019-02-14T11:07:51.736Z,1.60
2019-02-14T11:10:19.248Z,1.55
2019-02-14T11:12:46.766Z,1.73
2019-02-14T11:15:15.772Z,2.30
2019-02-14T11:17:43.230Z,1.80
2019-02-14T11:20:10.683Z,1.70
2019-02-14T11:22:38.150Z,1.57
2019-02-14T11:25:09.319Z,1.80
2019-02-14T11:27:36.874Z,1.95
2019-02-14T11:30:04.358Z,1.70
2019-02-14T11:32:31.839Z,1.77
2019-02-14T11:34:59.423Z,1.80
2019-02-14T11:37:26.939Z,1.63
2019-02-14T11:39:54.409Z,1.80
2019-02-14T11:42:21.995Z,1.83
2019-02-14T11:44:49.374Z,1.58
2019-02-14T11:47:16.918Z,1.73
2019-02-14T11:49:44.429Z,1.57
2019-02-14T11:52:11.902Z,1.40
2019-02-14T11:54:39.379Z,1.33
2019-02-14T11:57:07.435Z,1.77
2019-02-14T11:59:34.949Z,1.67
2019-02-14T12:02:02.432Z,1.50
2019-02-14T12:04:29.932Z,1.60
2019-02-14T12:06:57.403Z,1.50
2019-02-14T12:09:24.891Z,1.73
2019-02-14T12:11:52.361Z,1.50
2019-02-14T12:14:19.839Z,1.50
2019-02-14T12:16:47.323Z,1.40
2019-02-14T12:19:14.928Z,1.20
2019-02-14T12:21:42.381Z,1.43
2019-02-14T12:24:09.839Z,1.47
2019-02-14T12:26:38.091Z,1.67
2019-02-14T12:29:05.543Z,1.30
2019-02-14T12:31:33.097Z,1.20
2019-02-14T12:34:00.678Z,1.10
2019-02-14T12:36:28.145Z,1.40
2019-02-14T12:38:55.947Z,1.30
2019-02-14T12:41:23.398Z,1.08
2019-02-14T12:43:50.883Z,1.90
2019-02-14T12:46:18.329Z,1.42
2019-02-14T12:48:45.794Z,1.70
2019-02-14T12:51:13.244Z,1.30
2019-02-14T12:53:40.779Z,1.30
2019-02-14T12:56:08.485Z,1.30
2019-02-14T12:58:35.963Z,1.27
2019-02-14T13:01:03.486Z,1.10
2019-02-14T13:03:30.935Z,1.30
2019-02-14T13:05:58.414Z,1.33
2019-02-14T13:08:25.884Z,1.10
2019-02-14T13:10:53.359Z,1.17
2019-02-14T13:13:20.891Z,1.00
2019-02-14T13:15:48.436Z,1.00
2019-02-14T13:18:16.022Z,1.40
2019-02-14T13:20:43.517Z,1.00
2019-02-14T13:23:11.038Z,0.90
2019-02-14T13:25:38.943Z,1.00
2019-02-14T13:28:06.424Z,0.80
2019-02-14T13:30:33.893Z,1.00
2019-02-14T13:33:01.360Z,1.27
2019-02-14T13:35:28.884Z,1.00
2019-02-14T13:37:56.384Z,0.70
2019-02-14T13:40:23.897Z,0.70
2019-02-14T13:42:51.399Z,1.70
2019-02-14T13:45:20.849Z,1.40
2019-02-14T13:47:48.304Z,1.02
2019-02-14T13:50:16.148Z,0.70
2019-02-14T13:52:43.349Z,0.70
2019-02-14T13:55:10.880Z,1.20
2019-02-14T13:57:38.434Z,0.80
2019-02-14T14:00:07.501Z,0.60
2019-02-14T14:02:34.993Z,1.93
2019-02-14T14:05:02.510Z,2.12
2019-02-14T14:07:39.955Z,1.27
2019-02-14T14:09:57.441Z,1.30
2019-02-14T14:12:24.942Z,1.07
2019-02-14T14:14:52.423Z,1.40
2019-02-14T14:17:19.885Z,2.90
2019-02-14T14:19:47.398Z,1.42
2019-02-14T14:22:14.936Z,1.20
2019-02-14T14:24:42.476Z,1.10
2019-02-14T14:27:09.964Z,1.10
2019-02-14T14:29:37.448Z,1.10
2019-02-14T14:32:04.945Z,1.12
2019-02-14T14:34:32.464Z,1.20
2019-02-14T14:36:59.941Z,1.07
2019-02-14T14:39:27.430Z,1.00
2019-02-14T14:41:54.921Z,1.40
2019-02-14T14:44:22.413Z,1.45
2019-02-14T14:46:49.902Z,1.00
2019-02-14T14:49:17.465Z,1.17
2019-02-14T14:51:44.970Z,1.00
2019-02-14T14:54:12.528Z,1.00
2019-02-14T14:56:40.466Z,1.25
2019-02-14T14:59:07.942Z,1.30
2019-02-14T15:01:35.443Z,1.30
2019-02-14T15:04:02.932Z,1.03
2019-02-14T15:06:30.427Z,1.00
2019-02-14T15:08:57.919Z,1.30
2019-02-14T15:11:25.433Z,1.27
2019-02-14T15:13:53.082Z,1.10
2019-02-14T15:16:20.592Z,1.30
2019-02-14T15:18:48.082Z,1.10
2019-02-14T15:21:15.555Z,1.00
2019-02-14T15:23:43.032Z,1.50
2019-02-14T15:26:10.944Z,1.12
2019-02-14T15:28:38.438Z,1.10
2019-02-14T15:31:05.919Z,0.80
2019-02-14T15:33:33.414Z,1.00
2019-02-14T15:36:01.689Z,1.33
2019-02-14T15:38:29.216Z,1.40
2019-02-14T15:40:56.661Z,0.97
2019-02-14T15:43:24.127Z,1.00
2019-02-14T15:45:51.623Z,1.00
2019-02-14T15:48:19.118Z,1.63
2019-02-14T15:50:46.581Z,1.23
2019-02-14T15:53:14.066Z,1.03
2019-02-14T15:55:43.659Z,1.20
2019-02-14T15:58:10.633Z,1.30
2019-02-14T16:00:38.145Z,1.90
2019-02-14T16:03:05.625Z,1.40
2019-02-14T16:05:33.146Z,1.40
2019-02-14T16:08:02.464Z,1.60
2019-02-14T16:10:29.735Z,1.90
2019-02-14T16:12:55.662Z,1.30
2019-02-14T16:15:23.164Z,1.60
2019-02-14T16:17:50.662Z,1.90
2019-02-14T16:20:19.901Z,1.20
2019-02-14T16:22:46.766Z,1.33
2019-02-14T16:25:14.267Z,1.50
2019-02-14T16:27:41.921Z,4.07
2019-02-14T16:30:09.566Z,5.33
2019-02-14T16:32:36.897Z,3.57
2019-02-14T16:35:04.372Z,2.03
2019-02-14T16:37:31.820Z,1.83
2019-02-14T16:39:59.274Z,1.52
2019-02-14T16:42:27.877Z,1.90
2019-02-14T16:44:55.332Z,1.90
2019-02-14T16:47:22.824Z,1.80
2019-02-14T16:49:50.329Z,1.70
2019-02-14T16:52:17.793Z,1.87
2019-02-14T16:54:45.256Z,1.92
2019-02-14T16:57:12.728Z,2.00
2019-02-14T16:59:40.186Z,1.63
2019-02-14T17:02:07.662Z,1.57
2019-02-14T17:04:36.592Z,1.57
2019-02-14T17:07:04.240Z,2.00
2019-02-14T17:09:31.699Z,1.80
2019-02-14T17:11:59.224Z,1.60
2019-02-14T17:14:26.678Z,2.10
2019-02-14T17:16:54.161Z,2.00
2019-02-14T17:19:21.663Z,1.90
2019-02-14T17:21:49.150Z,2.33
2019-02-14T17:24:16.632Z,1.90
2019-02-14T17:26:44.121Z,2.20
2019-02-14T17:29:11.655Z,2.13
2019-02-14T17:31:39.075Z,2.30
2019-02-14T17:34:06.537Z,2.00
2019-02-14T17:36:34.023Z,2.23
2019-02-14T17:39:01.516Z,2.60
2019-02-14T17:41:28.966Z,2.40
2019-02-14T17:43:56.456Z,2.30
2019-02-14T17:46:23.887Z,2.35
2019-02-14T17:48:51.352Z,2.10
2019-02-14T17:51:18.812Z,2.30
2019-02-14T17:53:46.281Z,2.10
2019-02-14T17:56:13.765Z,1.80
2019-02-14T17:58:41.247Z,2.20
2019-02-14T18:01:08.693Z,1.87
2019-02-14T18:03:36.142Z,1.77
2019-02-14T18:06:03.621Z,2.37
2019-02-14T18:08:31.074Z,2.15
2019-02-14T18:11:00.142Z,2.50
2019-02-14T18:13:27.660Z,2.13
2019-02-14T18:15:55.115Z,2.57
2019-02-14T18:18:22.586Z,2.45
2019-02-14T18:20:50.064Z,2.60
2019-02-14T18:23:17.543Z,2.23
2019-02-14T18:25:45.035Z,3.03
2019-02-14T18:28:12.534Z,2.40
2019-02-14T18:30:40.005Z,2.20
2019-02-14T18:33:07.556Z,2.33
2019-02-14T18:35:34.995Z,2.20
2019-02-14T18:38:02.443Z,1.93
2019-02-14T18:40:29.923Z,2.07
2019-02-14T18:42:57.364Z,2.50
2019-02-14T18:45:25.577Z,2.80
2019-02-14T18:47:53.058Z,2.58
2019-02-14T18:50:20.521Z,2.43
2019-02-14T18:52:48.072Z,2.60
2019-02-14T18:55:15.540Z,3.10
2019-02-14T18:57:43.026Z,2.47
2019-02-14T19:00:12.850Z,2.80
2019-02-14T19:02:40.320Z,1.97
2019-02-14T19:05:07.769Z,2.20
2019-02-14T19:07:36.040Z,2.33
2019-02-14T19:10:06.459Z,2.50
2019-02-14T19:12:33.905Z,5.30
2019-02-14T19:15:01.332Z,3.80
2019-02-14T19:17:28.850Z,4.62
2019-02-14T19:19:56.323Z,3.33
2019-02-14T19:22:23.787Z,2.63
2019-02-14T19:24:51.266Z,2.73
2019-02-14T19:27:18.718Z,2.60
2019-02-14T19:29:46.207Z,2.10
2019-02-14T19:32:13.681Z,2.77
2019-02-14T19:34:41.198Z,2.43
2019-02-14T19:37:08.620Z,3.30
2019-02-14T19:39:36.120Z,2.73
2019-02-14T19:42:03.544Z,2.50
2019-02-14T19:44:31.002Z,2.50
2019-02-14T19:46:59.363Z,2.33
2019-02-14T19:49:26.850Z,2.10
2019-02-14T19:51:54.863Z,2.30
2019-02-14T19:54:22.318Z,2.00
2019-02-14T19:56:49.755Z,1.93
2019-02-14T19:59:17.211Z,1.90
2019-02-14T20:01:44.668Z,2.30
2019-02-14T20:04:12.124Z,2.10
2019-02-14T20:06:39.646Z,2.30
2019-02-14T20:09:07.124Z,2.40
2019-02-14T20:11:37.156Z,2.90
2019-02-14T20:14:03.047Z,2.65
2019-02-14T20:16:30.631Z,2.87
2019-02-14T20:18:58.107Z,2.70
2019-02-14T20:21:25.615Z,2.80
2019-02-14T20:23:53.089Z,2.62
2019-02-14T20:26:20.522Z,2.70
2019-02-14T20:28:47.963Z,2.83
2019-02-14T20:31:15.399Z,3.25
2019-02-14T20:33:42.865Z,3.10
2019-02-14T20:36:10.309Z,3.00
2019-02-14T20:38:37.783Z,2.70
2019-02-14T20:41:05.221Z,2.43
2019-02-14T20:43:32.769Z,2.15
2019-02-14T20:46:00.246Z,2.00
2019-02-14T20:48:27.738Z,2.20
2019-02-14T20:50:55.208Z,2.40
2019-02-14T20:53:22.635Z,1.90
2019-02-14T20:55:50.128Z,1.93
2019-02-14T20:58:17.614Z,1.50
2019-02-14T21:00:46.886Z,1.70
2019-02-14T21:03:14.432Z,1.90
2019-02-14T21:05:41.865Z,1.83
2019-02-14T21:08:09.295Z,1.70
2019-02-14T21:10:36.759Z,1.60
2019-02-14T21:13:04.268Z,1.60
2019-02-14T21:15:31.706Z,1.65
2019-02-14T21:17:59.166Z,1.80
2019-02-14T21:20:26.724Z,1.50
2019-02-14T21:22:54.172Z,1.90
2019-02-14T21:25:23.326Z,1.50
2019-02-14T21:27:49.060Z,1.63
2019-02-14T21:30:16.570Z,1.60
2019-02-14T21:32:44.107Z,2.03
2019-02-14T21:35:11.597Z,2.00
2019-02-14T21:37:39.073Z,1.77
2019-02-14T21:40:07.213Z,1.50
2019-02-14T21:42:34.681Z,1.90
2019-02-14T21:45:02.176Z,1.93
2019-02-14T21:47:30.555Z,1.70
2019-02-14T21:49:58.155Z,1.87
2019-02-14T21:52:25.610Z,1.60
2019-02-14T21:54:53.072Z,1.83
2019-02-14T21:57:20.526Z,1.70
2019-02-14T21:59:48.207Z,1.70
2019-02-14T22:02:15.689Z,1.60
2019-02-14T22:04:43.168Z,1.70
2019-02-14T22:07:10.687Z,1.80
2019-02-14T22:09:38.133Z,1.75
2019-02-14T22:12:05.664Z,1.50
2019-02-14T22:14:33.104Z,1.85
2019-02-14T22:17:00.622Z,1.90
2019-02-14T22:19:28.091Z,1.30
2019-02-14T22:21:55.554Z,1.80
2019-02-14T22:24:23.076Z,2.00
2019-02-14T22:26:50.507Z,1.98
2019-02-14T22:29:18.679Z,1.92
2019-02-14T22:31:46.120Z,2.27
2019-02-14T22:34:14.270Z,1.80
2019-02-14T22:36:41.750Z,1.52
2019-02-14T22:39:09.238Z,1.70
2019-02-14T22:41:36.679Z,1.83
2019-02-14T22:44:04.157Z,1.47
2019-02-14T22:46:31.733Z,1.70
2019-02-14T22:48:59.203Z,1.57
2019-02-14T22:51:26.662Z,1.70
2019-02-14T22:53:54.099Z,1.70
2019-02-14T22:56:21.610Z,1.50
2019-02-14T22:58:49.282Z,1.70
2019-02-14T23:01:16.683Z,1.63
2019-02-14T23:03:44.194Z,1.90
2019-02-14T23:06:11.643Z,1.80
2019-02-14T23:08:39.102Z,1.40
2019-02-14T23:11:06.542Z,1.48
2019-02-14T23:13:34.018Z,1.30
2019-02-14T23:16:03.042Z,1.55
2019-02-14T23:18:30.510Z,1.35
2019-02-14T23:20:57.967Z,1.30
2019-02-14T23:23:25.423Z,1.30
2019-02-14T23:25:52.907Z,1.50
2019-02-14T23:28:20.376Z,1.40
2019-02-14T23:30:47.933Z,1.57
2019-02-14T23:33:15.359Z,1.40
2019-02-14T23:35:42.816Z,1.27
2019-02-14T23:38:10.257Z,1.20
2019-02-14T23:40:37.702Z,1.60
2019-02-14T23:43:07.122Z,1.27
2019-02-14T23:45:32.630Z,1.50
2019-02-14T23:48:00.094Z,1.33
2019-02-14T23:50:27.544Z,1.20
2019-02-14T23:55:28.721Z,1.10
2019-02-14T23:57:56.186Z,1.30
